Time;durP1;ratioP1;P1;durP2;ratioP2;P2;SDS_P1;SDS_P2;PMS_P1;PMS_P2;Temp;Humidity;BMP_temperature;BMP_pressure;BME280_temperature;BME280_humidity;BME280_pressure;Samples;Min_cycle;Max_cycle;Signal;HPM_P1;HPM_P2
2021/04/21 00:00:14;;;;;;;18.98;11.10;;;;;;;6.83;81.38;99375.38;1683391;85;21476;-74
2021/04/21 00:05:25;;;;;;;14.18;10.13;;;;;;;6.80;81.82;99380.27;1887820;76;28281;-73
2021/04/21 00:07:54;;;;;;;18.42;10.10;;;;;;;6.74;81.86;99373.95;1853475;77;21115;-74
2021/04/21 00:10:24;;;;;;;14.90;8.55;;;;;;;6.73;82.13;99384.00;1858754;77;21430;-74
2021/04/21 00:12:52;;;;;;;16.05;10.78;;;;;;;6.73;82.53;99377.45;1855580;77;21590;-75
2021/04/21 00:15:22;;;;;;;15.53;10.40;;;;;;;6.71;82.20;99381.88;1812154;78;21198;-75
2021/04/21 00:17:54;;;;;;;17.75;12.43;;;;;;;6.69;82.47;99383.69;1795988;79;21194;-74
2021/04/21 00:20:23;;;;;;;15.00;10.43;;;;;;;6.67;82.28;99381.58;1795040;79;21171;-78
2021/04/21 00:22:55;;;;;;;16.95;10.30;;;;;;;6.64;82.44;99383.00;1795666;79;21460;-77
2021/04/21 00:25:26;;;;;;;15.60;9.50;;;;;;;6.62;82.22;99377.80;1795709;79;21217;-76
2021/04/21 00:27:55;;;;;;;13.58;9.55;;;;;;;6.62;81.94;99380.88;1820850;78;21123;-76
2021/04/21 00:30:28;;;;;;;15.32;9.73;;;;;;;6.57;82.43;99381.48;1822676;78;21166;-76
2021/04/21 00:32:56;;;;;;;15.93;9.25;;;;;;;6.58;82.53;99389.73;1822508;78;21173;-77
2021/04/21 00:35:31;;;;;;;17.73;9.70;;;;;;;6.56;82.38;99385.02;1822333;78;21274;-76
2021/04/21 00:38:02;;;;;;;14.50;10.13;;;;;;;6.57;82.25;99387.57;1821802;78;21496;-76
2021/04/21 00:44:04;;;;;;;14.00;9.88;;;;;;;6.58;82.49;99384.06;1860610;76;27862;-78
2021/04/21 00:46:40;;;;;;;15.43;10.40;;;;;;;6.52;82.82;99389.48;1785850;78;21652;-78
2021/04/21 00:49:56;;;;;;;14.43;10.23;;;;;;;6.47;82.41;99381.79;1805059;78;21365;-78
2021/04/21 00:52:51;;;;;;;17.35;9.88;;;;;;;6.43;82.38;99381.48;1809957;78;21170;-79
2021/04/21 00:55:34;;;;;;;13.88;9.75;;;;;;;6.44;83.14;99389.74;1799465;78;21146;-77
2021/04/21 00:58:19;;;;;;;17.82;11.25;;;;;;;6.44;83.38;99388.86;1758168;78;21188;-75
2021/04/21 01:00:47;;;;;;;14.95;10.45;;;;;;;6.39;83.16;99386.39;1807840;78;21118;-74
2021/04/21 01:03:23;;;;;;;18.07;12.18;;;;;;;6.36;83.33;99393.04;1815661;78;22070;-75
2021/04/21 01:06:04;;;;;;;16.10;10.98;;;;;;;6.34;83.22;99394.84;1824552;78;21173;-73
2021/04/21 01:08:45;;;;;;;11.22;8.45;;;;;;;6.30;83.34;99386.69;1804753;78;21195;-75
2021/04/21 01:11:40;;;;;;;18.23;10.63;;;;;;;6.29;83.64;99392.83;1786977;78;21192;-77
2021/04/21 01:14:18;;;;;;;16.75;10.10;;;;;;;6.29;83.73;99391.06;1783941;78;21113;-78
2021/04/21 01:16:58;;;;;;;16.97;10.40;;;;;;;6.28;83.68;99389.80;1772306;78;21653;-77
2021/04/21 01:20:05;;;;;;;14.47;9.85;;;;;;;6.25;83.47;99385.98;1781135;78;21158;-78
2021/04/21 01:22:45;;;;;;;15.08;10.50;;;;;;;6.22;83.44;99386.09;1784171;78;21197;-77
2021/04/21 01:25:52;;;;;;;16.73;10.18;;;;;;;6.20;83.58;99385.27;1791031;78;21165;-78
2021/04/21 01:28:23;;;;;;;14.15;9.48;;;;;;;6.18;84.01;99388.38;1796726;78;21196;-76
2021/04/21 01:30:51;;;;;;;13.43;8.65;;;;;;;6.18;83.91;99385.77;1790071;78;21616;-79
2021/04/21 01:33:21;;;;;;;14.45;10.38;;;;;;;6.16;83.89;99393.65;1806793;78;21605;-77
2021/04/21 01:36:00;;;;;;;16.45;10.90;;;;;;;6.12;83.78;99387.25;1801974;78;21174;-77
2021/04/21 01:38:30;;;;;;;20.72;11.55;;;;;;;6.09;83.87;99394.28;1787276;78;21177;-77
2021/04/21 01:41:02;;;;;;;13.48;8.70;;;;;;;6.08;84.12;99392.59;1777982;78;21160;-76
2021/04/21 01:43:38;;;;;;;14.47;9.55;;;;;;;6.09;84.33;99396.90;1793164;78;34234;-77
2021/04/21 01:46:07;;;;;;;13.83;9.63;;;;;;;6.08;84.12;99396.52;1776460;80;21217;-77
2021/04/21 01:48:35;;;;;;;21.37;11.65;;;;;;;6.09;84.21;99396.90;1778823;80;21158;-76
2021/04/21 01:51:16;;;;;;;17.15;11.68;;;;;;;6.08;84.22;99399.58;1769430;80;21197;-76
2021/04/21 01:53:51;;;;;;;;;;;;;;;6.08;84.11;99406.97;1761919;80;21166;-75
2021/04/21 01:56:27;;;;;;;16.42;11.48;;;;;;;6.08;84.02;99407.42;1780496;80;22322;-76
2021/04/21 01:59:03;;;;;;;19.67;11.60;;;;;;;6.06;84.07;99410.08;1770498;80;21190;-75
2021/04/21 02:01:48;;;;;;;18.75;11.25;;;;;;;6.07;84.17;99407.00;1760362;80;21196;-75
2021/04/21 02:04:39;;;;;;;18.62;10.05;;;;;;;6.06;84.13;99407.46;1770835;80;21155;-76
2021/04/21 02:07:41;;;;;;;16.35;10.78;;;;;;;6.07;84.35;99401.34;1783781;80;21141;-75
2021/04/21 02:10:57;;;;;;;18.48;11.53;;;;;;;6.13;84.83;99409.44;1873743;76;27183;-76
2021/04/21 02:13:52;;;;;;;20.30;10.23;;;;;;;6.08;84.53;99405.66;1745773;81;21857;-76
2021/04/21 02:17:10;;;;;;;15.25;10.20;;;;;;;6.10;84.47;99406.93;1737935;81;21080;-75
2021/04/21 02:19:53;;;;;;;17.62;11.88;;;;;;;6.10;84.58;99410.85;1764646;81;21515;-75
2021/04/21 02:22:48;;;;;;;18.25;12.50;;;;;;;6.10;84.86;99405.63;1758911;81;21175;-75
2021/04/21 02:25:45;;;;;;;16.37;11.22;;;;;;;6.14;84.58;99412.45;1853371;76;27146;-75
2021/04/21 02:28:34;;;;;;;19.98;11.78;;;;;;;6.10;84.42;99414.77;1825032;78;21156;-75
2021/04/21 02:31:39;;;;;;;17.30;10.98;;;;;;;6.11;84.47;99419.55;1824967;77;21774;-77
2021/04/21 02:34:34;;;;;;;16.75;11.38;;;;;;;6.12;84.94;99419.94;1829958;77;21182;-78
2021/04/21 02:37:13;;;;;;;14.60;11.10;;;;;;;6.13;84.83;99417.74;1825828;77;21146;-74
2021/04/21 02:40:02;;;;;;;15.80;9.63;;;;;;;6.12;84.85;99419.94;1818299;78;21135;-73
2021/04/21 02:42:52;;;;;;;16.20;10.28;;;;;;;6.14;85.04;99419.44;1820345;78;21217;-74
2021/04/21 02:45:48;;;;;;;16.05;10.15;;;;;;;6.16;84.86;99418.48;1820587;78;21403;-74
2021/04/21 02:49:06;;;;;;;16.52;10.00;;;;;;;6.15;85.13;99418.09;1820472;78;21190;-75
2021/04/21 02:52:03;;;;;;;15.80;9.75;;;;;;;6.14;85.15;99413.75;1820650;78;21135;-74
2021/04/21 02:55:12;;;;;;;16.90;10.90;;;;;;;6.14;85.37;99421.59;1820827;78;21146;-74
2021/04/21 02:58:09;;;;;;;17.07;10.50;;;;;;;6.13;85.11;99422.52;1820884;78;21135;-72
2021/04/21 03:00:54;;;;;;;15.05;10.48;;;;;;;6.12;84.92;99423.85;1820694;78;21817;-74
2021/04/21 03:03:45;;;;;;;15.25;10.15;;;;;;;6.11;85.07;99430.00;1820462;78;21186;-72
2021/04/21 03:06:18;;;;;;;17.40;10.60;;;;;;;6.13;85.59;99433.42;1824830;78;21167;-75
2021/04/21 03:08:51;;;;;;;16.23;10.50;;;;;;;6.17;85.50;99438.98;1825039;78;21201;-75
2021/04/21 03:11:26;;;;;;;16.07;10.90;;;;;;;6.15;85.23;99439.47;1824890;78;21165;-74
2021/04/21 03:14:17;;;;;;;15.32;9.55;;;;;;;6.17;84.88;99439.83;1810680;78;21205;-75
2021/04/21 03:17:00;;;;;;;14.75;9.40;;;;;;;6.18;84.76;99443.29;1815370;78;21133;-75
2021/04/21 03:19:31;;;;;;;15.43;8.90;;;;;;;6.21;84.71;99452.34;1823127;78;21209;-74
2021/04/21 03:22:13;;;;;;;18.35;11.10;;;;;;;6.21;84.70;99453.22;1807475;78;21159;-73
2021/04/21 03:24:35;;;;;;;18.35;10.78;;;;;;;6.23;84.57;99450.53;1811390;78;21505;-75
2021/04/21 03:27:05;;;;;;;18.07;11.18;;;;;;;6.24;84.76;99457.50;1805121;79;22331;-74
2021/04/21 03:29:46;;;;;;;18.82;11.60;;;;;;;6.25;84.75;99452.66;1802717;79;21184;-75
2021/04/21 03:32:30;;;;;;;17.98;11.70;;;;;;;6.26;84.66;99455.70;1785158;79;21180;-74
2021/04/21 03:34:58;;;;;;;16.10;10.85;;;;;;;6.26;84.33;99461.77;1786365;79;21176;-73
2021/04/21 03:37:53;;;;;;;14.78;10.20;;;;;;;6.28;84.18;99472.16;1795038;79;22091;-74
2021/04/21 03:40:21;;;;;;;14.50;9.70;;;;;;;6.28;84.06;99469.13;1785507;79;22241;-76
2021/04/21 03:42:49;;;;;;;16.48;11.20;;;;;;;6.28;84.15;99466.94;1800404;79;21216;-75
2021/04/21 03:45:17;;;;;;;15.68;10.65;;;;;;;6.28;84.12;99473.47;1810707;79;21169;-72
2021/04/21 03:47:45;;;;;;;22.48;11.15;;;;;;;6.28;84.03;99476.09;1811028;79;21116;-76
2021/04/21 03:50:14;;;;;;;16.32;10.50;;;;;;;6.33;83.81;99477.26;1807409;79;21176;-75
2021/04/21 03:52:47;;;;;;;17.40;10.35;;;;;;;6.32;83.82;99475.10;1811188;79;21350;-76
2021/04/21 03:55:15;;;;;;;15.60;10.30;;;;;;;6.33;83.87;99478.14;1811384;79;21167;-73
2021/04/21 03:57:47;;;;;;;17.15;10.88;;;;;;;6.34;83.82;99478.98;1806544;79;21133;-76
2021/04/21 04:00:19;;;;;;;18.45;11.22;;;;;;;6.35;83.73;99484.19;1811465;79;21184;-77
2021/04/21 04:02:52;;;;;;;13.88;9.80;;;;;;;6.33;83.82;99482.48;1811177;79;21648;-75
2021/04/21 04:05:23;;;;;;;14.50;9.28;;;;;;;6.36;83.64;99489.80;1811356;79;21366;-77
2021/04/21 04:07:51;;;;;;;16.00;10.48;;;;;;;6.38;83.41;99494.55;1811161;79;21160;-77
2021/04/21 04:10:19;;;;;;;14.60;9.80;;;;;;;6.38;83.50;99499.77;1811489;79;21113;-77
2021/04/21 04:12:47;;;;;;;14.55;10.35;;;;;;;6.38;83.73;99498.92;1811155;79;21168;-78
2021/04/21 04:15:15;;;;;;;15.65;9.85;;;;;;;6.38;84.07;99497.16;1811342;79;21203;-77
2021/04/21 04:17:48;;;;;;;14.13;9.70;;;;;;;6.37;83.89;99503.27;1810789;79;22628;-76
2021/04/21 04:20:17;;;;;;;14.20;9.38;;;;;;;6.39;83.91;99506.70;1806639;79;22243;-76
2021/04/21 04:22:50;;;;;;;15.38;10.28;;;;;;;6.39;84.21;99509.31;1807440;79;21196;-77
2021/04/21 04:25:19;;;;;;;15.72;10.72;;;;;;;6.39;84.58;99517.16;1816321;77;21190;-80
2021/04/21 04:27:47;;;;;;;16.23;9.85;;;;;;;6.38;83.91;99516.77;1819022;78;21693;-78
2021/04/21 04:30:17;;;;;;;14.58;9.48;;;;;;;6.39;83.81;99519.78;1825866;78;21201;-78
2021/04/21 04:32:44;;;;;;;19.65;11.10;;;;;;;6.41;83.82;99517.12;1825452;78;21190;-75
2021/04/21 04:35:14;;;;;;;16.30;10.30;;;;;;;6.41;83.89;99523.21;1825613;78;21791;-75
2021/04/21 04:37:42;;;;;;;15.03;9.98;;;;;;;6.42;83.60;99520.13;1822024;77;21139;-77
2021/04/21 04:40:14;;;;;;;17.77;10.00;;;;;;;6.45;83.54;99524.84;1750114;80;21737;-78
2021/04/21 04:42:42;;;;;;;15.63;10.60;;;;;;;6.48;83.88;99524.73;1744830;81;21359;-77
2021/04/21 04:50:39;;;;;;;17.40;11.93;;;;;;;6.60;83.78;99530.50;1808071;76;27952;-78
2021/04/21 04:53:07;;;;;;;16.12;10.68;;;;;;;6.64;83.62;99532.13;1748893;81;21151;-78
2021/04/21 04:55:35;;;;;;;17.32;11.68;;;;;;;6.71;82.85;99527.11;1741463;81;21666;-78
2021/04/21 04:58:03;;;;;;;13.70;10.05;;;;;;;6.73;83.06;99539.70;1800014;79;21590;-80
2021/04/21 05:00:31;;;;;;;17.90;10.72;;;;;;;6.72;82.48;99540.16;1815771;79;21139;-78
2021/04/21 05:03:19;;;;;;;17.12;11.43;;;;;;;6.71;82.31;99538.89;1815554;79;21158;-79
2021/04/21 05:05:48;;;;;;;17.45;12.15;;;;;;;6.68;82.33;99546.38;1815284;79;21175;-79
2021/04/21 05:08:17;;;;;;;18.50;12.23;;;;;;;6.67;82.28;99537.27;1734662;82;22250;-79
2021/04/21 05:11:02;;;;;;;16.70;11.35;;;;;;;6.70;82.45;99540.66;1739799;81;21203;-78
2021/04/21 05:13:42;;;;;;;18.15;10.58;;;;;;;6.75;82.41;99544.44;1780483;80;21218;-78
2021/04/21 05:16:27;;;;;;;17.42;11.55;;;;;;;6.79;82.34;99544.76;1783299;80;21162;-78
2021/04/21 05:19:21;;;;;;;21.65;12.45;;;;;;;6.82;81.93;99542.03;1748982;81;21135;-79
2021/04/21 05:22:20;;;;;;;18.95;12.65;;;;;;;6.82;81.19;99540.72;1730975;82;22286;-79
2021/04/21 05:25:28;;;;;;;18.57;12.53;;;;;;;6.81;80.99;99550.80;1739794;82;21183;-79
2021/04/21 05:28:46;;;;;;;17.70;11.57;;;;;;;6.83;80.58;99552.92;1720568;81;21202;-79
2021/04/21 05:32:01;;;;;;;18.02;11.53;;;;;;;6.87;80.24;99555.83;1678990;84;21246;-79
2021/04/21 05:35:07;;;;;;;18.40;11.43;;;;;;;6.89;80.06;99559.26;1719201;82;21180;-79
2021/04/21 05:37:58;;;;;;;18.70;11.65;;;;;;;6.92;79.92;99560.92;1774308;80;22106;-79
2021/04/21 05:40:46;;;;;;;;;;;;;;;6.97;79.71;99560.78;1768045;80;21181;-79
2021/04/21 05:43:55;;;;;;;21.15;12.88;;;;;;;7.03;79.48;99566.68;1782240;80;20269;-79
2021/04/21 05:47:08;;;;;;;16.52;9.93;;;;;;;7.07;79.16;99574.84;1783260;80;21764;-78
2021/04/21 05:50:32;;;;;;;16.23;10.45;;;;;;;7.17;78.50;99579.34;1744149;81;22504;-77
2021/04/21 05:53:34;;;;;;;18.37;11.35;;;;;;;7.22;77.98;99577.88;1747334;80;22630;-79
2021/04/21 05:56:31;;;;;;;18.98;11.53;;;;;;;7.30;78.55;99580.66;1730348;81;21186;-79
2021/04/21 05:59:27;;;;;;;23.95;12.43;;;;;;;7.43;78.20;99581.56;1782228;80;21120;-78
2021/04/21 06:01:57;;;;;;;21.48;11.25;;;;;;;7.52;77.74;99590.00;1734404;82;21123;-79
2021/04/21 06:04:25;;;;;;;20.77;11.63;;;;;;;7.65;77.23;99586.50;1730335;82;21178;-79
2021/04/21 06:07:08;;;;;;;17.45;10.93;;;;;;;7.73;76.89;99587.11;1748167;82;21316;-79
2021/04/21 06:09:36;;;;;;;25.27;12.80;;;;;;;7.83;76.69;99590.72;1725383;81;21191;-79
2021/04/21 06:12:16;;;;;;;18.82;11.83;;;;;;;7.93;76.89;99594.27;1763542;80;21182;-79
2021/04/21 06:14:45;;;;;;;19.95;11.53;;;;;;;8.03;75.99;99596.14;1763089;80;21103;-79
2021/04/21 06:17:13;;;;;;;18.48;13.25;;;;;;;8.10;75.78;99596.31;1780297;80;21634;-78
2021/04/21 06:19:44;;;;;;;19.07;10.72;;;;;;;8.16;74.74;99596.08;1726029;80;21354;-78
2021/04/21 06:22:12;;;;;;;22.95;11.90;;;;;;;8.25;74.75;99600.61;1716138;82;21253;-79
2021/04/21 06:24:41;;;;;;;23.57;13.10;;;;;;;8.30;73.93;99605.23;1785570;79;21138;-78
2021/04/21 06:27:10;;;;;;;18.80;11.78;;;;;;;8.35;74.44;99596.73;1782437;79;21209;-79
2021/04/21 06:29:40;;;;;;;18.48;12.80;;;;;;;8.43;73.25;99601.75;1769697;80;21630;-79
2021/04/21 06:32:15;;;;;;;17.25;11.60;;;;;;;8.48;72.87;99603.28;1767992;80;21553;-79
2021/04/21 06:34:45;;;;;;;18.65;10.70;;;;;;;8.51;72.19;99605.81;1761324;80;21190;-78
2021/04/21 06:37:13;;;;;;;17.05;10.43;;;;;;;8.58;72.51;99609.92;1777931;80;22569;-79
2021/04/21 06:39:41;;;;;;;23.77;12.50;;;;;;;8.69;71.74;99611.27;1722173;81;21119;-79
2021/04/21 06:42:10;;;;;;;17.17;10.28;;;;;;;8.78;71.59;99606.98;1775348;79;21194;-78
2021/04/21 06:44:46;;;;;;;17.15;11.50;;;;;;;8.88;71.61;99607.05;1781762;77;21210;-78
2021/04/21 06:47:23;;;;;;;15.45;10.32;;;;;;;9.03;70.03;99609.53;1765594;80;21155;-78
2021/04/21 06:50:07;;;;;;;16.15;10.40;;;;;;;9.21;70.49;99610.58;1776683;80;21198;-78
2021/04/21 06:52:42;;;;;;;19.87;11.18;;;;;;;9.41;69.29;99612.42;1775212;80;21195;-77
2021/04/21 06:55:14;;;;;;;18.07;10.78;;;;;;;9.60;66.99;99608.58;1781681;80;21142;-77
2021/04/21 06:57:42;;;;;;;18.92;12.20;;;;;;;9.75;67.24;99608.38;1768174;80;21951;-79
2021/04/21 07:00:16;;;;;;;20.80;12.23;;;;;;;9.93;67.21;99614.65;1775945;80;21186;-79
2021/04/21 07:02:46;;;;;;;22.27;11.78;;;;;;;10.10;66.80;99612.16;1782976;80;21146;-78
2021/04/21 07:05:36;;;;;;;15.78;10.65;;;;;;;10.35;65.57;99616.36;1782909;80;21179;-78
2021/04/21 07:08:08;;;;;;;19.57;10.32;;;;;;;10.55;64.23;99618.11;1693156;83;21316;-79
2021/04/21 07:10:49;;;;;;;13.78;9.50;;;;;;;10.83;63.28;99609.80;1748396;80;21174;-79
2021/04/21 07:13:29;;;;;;;17.05;9.83;;;;;;;11.29;60.31;99605.83;1780705;79;21169;-79
2021/04/21 07:16:20;;;;;;;13.28;9.18;;;;;;;11.86;59.24;99610.95;1770629;80;21155;-77
2021/04/21 07:18:58;;;;;;;18.50;9.30;;;;;;;12.27;56.12;99610.65;1776954;80;21198;-80
2021/04/21 07:21:29;;;;;;;16.23;9.60;;;;;;;12.51;56.74;99616.88;1781741;79;21186;-78
2021/04/21 07:24:00;;;;;;;16.82;8.75;;;;;;;12.69;54.91;99617.22;1782304;80;21639;-79
2021/04/21 07:26:33;;;;;;;16.65;9.05;;;;;;;12.66;54.51;99616.55;1782259;80;21187;-78
2021/04/21 07:29:03;;;;;;;14.90;8.38;;;;;;;12.55;53.34;99623.72;1779941;80;21230;-79
2021/04/21 07:31:36;;;;;;;17.10;9.30;;;;;;;12.03;53.85;99626.42;1782757;80;21178;-78
2021/04/21 07:34:13;;;;;;;13.40;9.08;;;;;;;11.71;55.33;99631.05;1767207;80;21186;-78
2021/04/21 07:36:46;;;;;;;15.23;9.08;;;;;;;11.61;55.34;99626.30;1783172;80;21198;-79
2021/04/21 07:39:15;;;;;;;17.10;9.40;;;;;;;11.68;55.40;99631.66;1782892;80;21186;-79
2021/04/21 07:41:48;;;;;;;13.32;8.95;;;;;;;12.00;55.82;99627.91;1783051;80;21179;-78
2021/04/21 07:44:50;;;;;;;15.20;9.15;;;;;;;12.43;54.61;99632.30;1782767;78;21131;-78
2021/04/21 07:47:12;;;;;;;16.00;9.13;;;;;;;12.97;53.91;99635.06;1780398;79;21134;-76
2021/04/21 07:49:45;;;;;;;18.57;11.70;;;;;;;13.47;52.14;99633.22;1780074;80;21645;-77
2021/04/21 07:52:27;;;;;;;15.28;9.83;;;;;;;13.81;52.40;99639.23;1748334;82;21260;-77
2021/04/21 07:55:09;;;;;;;19.30;9.58;;;;;;;14.07;51.00;99632.39;1730234;82;21181;-76
2021/04/21 07:57:39;;;;;;;13.98;8.45;;;;;;;14.32;51.92;99626.48;1718528;82;21146;-76
2021/04/21 08:00:11;;;;;;;15.67;9.00;;;;;;;14.51;48.72;99633.31;1782790;80;21401;-79
2021/04/21 08:02:43;;;;;;;17.52;9.03;;;;;;;14.57;48.70;99635.15;1781037;80;21358;-80
2021/04/21 08:05:14;;;;;;;12.95;8.43;;;;;;;14.56;48.23;99641.86;1778964;80;21181;-79
2021/04/21 08:07:43;;;;;;;18.05;10.00;;;;;;;14.46;47.53;99641.06;1783176;80;21178;-79
2021/04/21 08:10:27;;;;;;;16.37;9.10;;;;;;;14.19;48.60;99647.54;1736441;82;21601;-78
2021/04/21 08:12:58;;;;;;;16.05;9.93;;;;;;;13.90;48.84;99646.63;1730290;82;21194;-79
2021/04/21 08:15:34;;;;;;;14.57;9.33;;;;;;;13.43;51.00;99655.49;1731491;82;21190;-79
2021/04/21 08:18:13;;;;;;;13.75;9.15;;;;;;;13.28;51.99;99645.80;1730047;82;21490;-79
2021/04/21 08:20:44;;;;;;;13.85;8.03;;;;;;;13.26;50.99;99653.77;1748672;82;21166;-79
2021/04/21 08:23:18;;;;;;;17.20;8.15;;;;;;;13.41;50.54;99652.95;1727491;82;21179;-80
2021/04/21 08:25:48;;;;;;;15.48;9.13;;;;;;;13.45;47.89;99661.55;1746985;82;21131;-78
2021/04/21 08:28:20;;;;;;;17.02;9.10;;;;;;;13.34;48.17;99662.62;1728732;83;21215;-79
2021/04/21 08:30:55;;;;;;;;;;;;;;;13.37;49.17;99658.50;1773604;80;21677;-79
2021/04/21 08:33:23;;;;;;;15.38;7.70;;;;;;;13.61;49.89;99655.77;1783364;80;20556;-80
2021/04/21 08:35:51;;;;;;;8.88;6.58;;;;;;;13.91;46.81;99656.27;1783096;80;21179;-81
2021/04/21 08:38:19;;;;;;;11.55;6.53;;;;;;;14.13;45.74;99653.70;1779335;80;21142;-79
2021/04/21 08:40:47;;;;;;;9.40;6.00;;;;;;;14.04;45.09;99658.58;1783465;80;21422;-79
2021/04/21 08:43:17;;;;;;;8.75;6.10;;;;;;;14.12;44.29;99648.01;1783645;79;21206;-78
2021/04/21 08:45:45;;;;;;;10.15;6.20;;;;;;;14.20;42.85;99651.91;1783338;80;21186;-77
2021/04/21 08:48:13;;;;;;;13.72;7.25;;;;;;;14.17;43.93;99647.25;1782888;80;21177;-76
2021/04/21 08:50:42;;;;;;;12.85;7.53;;;;;;;14.27;45.95;99645.78;1781153;80;21441;-78
2021/04/21 08:53:09;;;;;;;12.73;6.72;;;;;;;14.43;47.07;99647.88;1778567;80;21399;-77
2021/04/21 08:55:39;;;;;;;12.07;6.25;;;;;;;14.66;44.46;99649.16;1754777;80;21171;-78
2021/04/21 08:58:10;;;;;;;8.95;5.72;;;;;;;14.73;42.54;99636.86;1778652;80;21163;-78
2021/04/21 09:00:39;;;;;;;8.28;5.37;;;;;;;14.53;40.93;99645.52;1779533;80;21147;-77
2021/04/21 09:03:08;;;;;;;9.63;5.80;;;;;;;14.40;41.97;99642.78;1778800;80;21191;-78
2021/04/21 09:05:36;;;;;;;12.07;6.80;;;;;;;14.23;43.63;99641.60;1779353;80;21326;-78
2021/04/21 09:08:05;;;;;;;13.40;6.53;;;;;;;14.22;44.17;99649.18;1779028;80;21214;-76
2021/04/21 09:10:34;;;;;;;10.65;6.58;;;;;;;14.35;43.99;99644.83;1780170;80;21159;-77
2021/04/21 09:13:02;;;;;;;10.95;6.60;;;;;;;14.53;43.77;99644.67;1777831;79;21700;-77
2021/04/21 09:15:30;;;;;;;8.95;6.05;;;;;;;14.75;44.34;99647.74;1778462;79;21115;-78
2021/04/21 09:17:59;;;;;;;18.25;6.65;;;;;;;14.88;42.80;99643.84;1778240;80;21491;-78
2021/04/21 09:20:27;;;;;;;9.85;5.60;;;;;;;14.94;42.81;99650.09;1777841;80;21207;-81
2021/04/21 09:25:37;;;;;;;10.78;5.85;;;;;;;14.84;40.38;99649.82;1820413;77;22689;-82
2021/04/21 09:28:06;;;;;;;11.93;6.00;;;;;;;14.43;42.40;99653.17;1821858;78;21611;-81
2021/04/21 09:30:40;;;;;;;11.78;6.80;;;;;;;14.02;42.04;99662.27;1823663;77;21344;-78
2021/04/21 09:33:05;;;;;;;7.92;5.67;;;;;;;13.93;43.10;99651.73;1834228;77;26422;-79
2021/04/21 09:35:39;;;;;;;7.78;5.55;;;;;;;13.96;42.55;99654.67;1821946;77;21195;-79
2021/04/21 09:38:17;;;;;;;7.58;5.65;;;;;;;14.06;42.19;99651.89;1820266;78;21200;-78
2021/04/21 09:40:49;;;;;;;8.58;5.80;;;;;;;14.10;41.85;99652.54;1821959;77;21049;-81
2021/04/21 09:43:25;;;;;;;12.25;5.47;;;;;;;14.16;42.14;99657.00;1835806;77;21775;-81
2021/04/21 09:46:00;;;;;;;6.80;5.12;;;;;;;14.18;41.89;99651.63;1828080;77;21142;-80
2021/04/21 09:48:33;;;;;;;8.60;5.05;;;;;;;14.16;43.11;99658.33;1787595;80;21155;-83
2021/04/21 09:51:06;;;;;;;11.57;5.58;;;;;;;14.19;43.35;99654.64;1758277;80;21246;-82
2021/04/21 09:53:47;;;;;;;9.65;5.20;;;;;;;14.27;43.82;99666.97;1767990;80;21463;-81
2021/04/21 09:56:26;;;;;;;9.00;5.80;;;;;;;14.27;42.34;99661.19;1793632;79;22362;-80
2021/04/21 09:58:56;;;;;;;8.25;5.60;;;;;;;14.03;42.13;99664.84;1791078;79;21145;-79
2021/04/21 10:01:36;;;;;;;10.43;5.65;;;;;;;13.99;42.27;99664.63;1789722;79;21140;-80
2021/04/21 10:04:19;;;;;;;7.65;5.25;;;;;;;13.94;43.53;99663.17;1806793;79;21563;-81
2021/04/21 10:06:54;;;;;;;9.83;4.87;;;;;;;14.09;42.06;99658.80;1796655;79;21198;-81
2021/04/21 10:09:28;;;;;;;6.95;4.08;;;;;;;14.24;41.58;99660.51;1816998;78;21360;-80
2021/04/21 10:12:36;;;;;;;22.30;5.62;;;;;;;14.42;42.08;99658.56;1807671;78;21205;-81
2021/04/21 10:15:12;;;;;;;6.55;4.03;;;;;;;14.53;42.63;99657.44;1644721;87;21750;-81
2021/04/21 10:17:43;;;;;;;8.23;4.78;;;;;;;14.54;41.30;99650.33;1700307;84;21144;-82
2021/04/21 10:20:16;;;;;;;7.78;4.42;;;;;;;14.53;41.47;99652.63;1705937;84;21199;-82
2021/04/21 10:22:46;;;;;;;7.08;4.97;;;;;;;14.81;40.79;99646.50;1705739;83;26735;-81
2021/04/21 10:25:15;;;;;;;5.42;4.50;;;;;;;15.40;40.86;99648.97;1718844;83;21646;-81
2021/04/21 10:27:43;;;;;;;7.30;5.10;;;;;;;15.93;39.32;99649.92;1721186;83;21174;-82
2021/04/21 10:30:13;;;;;;;8.50;5.05;;;;;;;16.24;39.27;99639.88;1724223;82;21206;-82
2021/04/21 10:32:42;;;;;;;6.53;4.65;;;;;;;16.17;38.54;99642.09;1704619;83;21227;-80
2021/04/21 10:35:11;;;;;;;7.87;4.95;;;;;;;15.78;39.92;99649.61;1774194;80;22136;-82
2021/04/21 10:37:40;;;;;;;11.70;5.87;;;;;;;15.48;41.36;99662.58;1770661;80;21207;-76
2021/04/21 10:40:11;;;;;;;8.53;5.17;;;;;;;14.98;42.54;99660.05;1765079;80;21198;-76
2021/04/21 10:42:52;;;;;;;9.98;5.95;;;;;;;14.64;42.77;99656.34;1755911;80;21232;-77
2021/04/21 10:45:24;;;;;;;9.63;5.80;;;;;;;14.61;43.69;99653.05;1750816;81;21645;-77
2021/04/21 10:47:54;;;;;;;9.55;5.37;;;;;;;14.58;43.07;99647.91;1738933;81;21228;-78
2021/04/21 10:50:40;;;;;;;6.45;4.58;;;;;;;14.73;41.88;99654.09;1762440;81;21174;-77
2021/04/21 10:53:40;;;;;;;10.75;5.92;;;;;;;15.15;42.27;99645.23;1764007;81;21162;-76
2021/04/21 10:56:21;;;;;;;8.53;5.50;;;;;;;15.78;39.83;99652.27;1737281;81;21213;-83
2021/04/21 10:58:53;;;;;;;8.00;5.12;;;;;;;16.46;40.94;99642.77;1766325;80;21165;-83
2021/04/21 11:01:36;;;;;;;14.18;5.10;;;;;;;16.77;39.74;99644.60;1689514;84;22354;-83
2021/04/21 11:04:06;;;;;;;37.13;6.03;;;;;;;16.62;38.84;99652.34;1696003;83;21199;-83
2021/04/21 11:06:45;;;;;;;7.35;4.30;;;;;;;16.99;39.07;99650.63;1729587;80;21180;-81
2021/04/21 11:09:13;;;;;;;8.78;5.40;;;;;;;17.49;37.75;99649.27;1733823;81;21151;-82
2021/04/21 11:11:50;;;;;;;6.03;4.75;;;;;;;17.48;36.04;99654.20;1763254;81;21111;-82
2021/04/21 11:14:50;;;;;;;6.50;4.47;;;;;;;17.44;37.69;99650.06;1735015;80;21399;-81
2021/04/21 11:17:18;;;;;;;6.08;4.65;;;;;;;17.82;36.08;99644.61;1716555;83;21188;-82
2021/04/21 11:19:46;;;;;;;15.63;6.45;;;;;;;18.07;36.06;99639.61;1699080;81;21221;-83
2021/04/21 11:22:28;;;;;;;11.05;4.62;;;;;;;18.56;37.66;99645.16;1730852;82;21206;-83
2021/04/21 11:25:28;;;;;;;6.37;4.47;;;;;;;18.62;36.73;99642.52;1767706;80;21673;-81
2021/04/21 11:27:58;;;;;;;10.58;4.37;;;;;;;18.19;35.54;99645.33;1680924;83;21611;-82
2021/04/21 11:30:42;;;;;;;5.60;3.97;;;;;;;17.93;34.17;99647.32;1656897;86;21151;-83
2021/04/21 11:33:10;;;;;;;5.28;3.85;;;;;;;17.80;35.51;99647.34;1686591;84;21432;-82
2021/04/21 11:35:38;;;;;;;8.08;4.28;;;;;;;17.30;35.16;99649.28;1662717;83;21228;-81
2021/04/21 11:38:06;;;;;;;6.72;4.15;;;;;;;16.77;36.79;99641.94;1708055;83;21214;-83
2021/04/21 11:40:36;;;;;;;8.73;4.53;;;;;;;16.68;38.10;99644.80;1684680;85;21365;-81
2021/04/21 11:43:16;;;;;;;8.50;5.30;;;;;;;16.95;38.28;99647.32;1729710;81;21173;-82
2021/04/21 11:45:46;;;;;;;13.38;4.20;;;;;;;17.20;40.22;99641.58;1724766;81;21173;-84
2021/04/21 11:48:18;;;;;;;7.62;4.42;;;;;;;17.60;37.24;99645.34;1748516;81;21179;-83
2021/04/21 11:53:32;;;;;;;7.15;4.22;;;;;;;17.81;36.13;99634.94;1824881;76;22817;-82
2021/04/21 11:56:05;;;;;;;6.67;4.08;;;;;;;17.66;36.65;99643.53;1730061;82;21183;-82
2021/04/21 11:58:32;;;;;;;9.33;4.17;;;;;;;17.57;36.18;99642.39;1744154;81;22050;-82
2021/04/21 12:01:08;;;;;;;7.37;4.67;;;;;;;17.48;35.95;99643.56;1727382;82;21175;-82
2021/04/21 12:03:48;;;;;;;7.40;4.58;;;;;;;17.23;36.02;99644.04;1740647;81;21186;-81
2021/04/21 12:06:19;;;;;;;14.23;4.58;;;;;;;17.01;38.32;99639.40;1749885;82;21232;-81
2021/04/21 12:08:51;;;;;;;9.55;4.58;;;;;;;16.95;39.04;99636.68;1750640;81;21202;-81
2021/04/21 12:11:33;;;;;;;7.80;4.80;;;;;;;17.03;39.34;99636.16;1759848;81;22473;-78
2021/04/21 12:13:57;;;;;;;6.37;4.00;;;;;;;17.07;37.79;99634.98;1728076;82;21931;-76
2021/04/21 12:16:29;;;;;;;8.60;4.12;;;;;;;17.05;35.53;99644.03;1728191;83;21957;-77
2021/04/21 12:18:59;;;;;;;6.62;3.75;;;;;;;16.84;36.46;99630.43;1716458;83;21104;-76
2021/04/21 12:21:36;;;;;;;4.72;3.05;;;;;;;16.90;36.88;99622.87;1733116;82;21170;-77
2021/04/21 12:24:06;;;;;;;6.08;3.83;;;;;;;17.15;34.85;99623.77;1765481;79;21637;-75
2021/04/21 12:26:37;;;;;;;5.45;3.60;;;;;;;17.10;34.91;99630.77;1775126;79;21159;-74
2021/04/21 12:29:09;;;;;;;15.83;3.75;;;;;;;17.11;35.79;99628.45;1774970;80;21310;-73
2021/04/21 12:31:37;;;;;;;6.35;4.20;;;;;;;17.34;36.13;99632.11;1767305;80;21174;-72